Flight Track Log - Related Links

Times and Time Zones

All times are in EDT time to prevent confusion due to time zone crossing. See the SWA1240 flight status page for this flight to view local times or setup timezone preferences in your user account.

Time Position Orientation Groundspeed Altitude Reporting Facility
EDT Latitude Longitude Course Direction KTS MPH feet Rate Location/Type
Sat 08:45:59 PM 41.8000 -87.7667 37° Northeast 155 178 1,700  Level Chicago TRACON
Sat 08:46:59 PM 41.8333 -87.7333 161° South 227 261 2,900 1,500 Climbing Chicago TRACON
Sat 08:48:43 PM 41.7275 -87.6833 212° Southwest 260 299 5,800 1,280 Climbing Chicago Center
Sat 08:49:43 PM 41.6658 -87.7350 221° Southwest 298 343 6,400 2,133 Climbing Chicago Center
Sat 08:51:43 PM 41.5467 -87.8739 220° Southwest 294 338 12,200 2,733 Climbing Chicago Center
Sat 08:52:43 PM 41.4686 -87.9617 204° Southwest 317 365 14,600 2,800 Climbing Chicago Center
Sat 08:54:43 PM 41.2719 -88.0764 198° South 405 466 20,600 2,833 Climbing Chicago Center
Sat 08:55:43 PM 41.1578 -88.1256 208° Southwest 415 478 23,100 2,400 Climbing Chicago Center
Sat 08:56:43 PM 41.0522 -88.1989 207° Southwest 428 493 25,400 2,200 Climbing Chicago Center
Sat 08:57:43 PM 40.9406 -88.2753 207° Southwest 444 511 27,500 1,950 Climbing Chicago Center
Sat 08:58:43 PM 40.8286 -88.3511 207° Southwest 449 517 29,300 2,050 Climbing Chicago Center
Sat 08:59:43 PM 40.7144 -88.4294 208° Southwest 449 517 31,600 2,000 Climbing Chicago Center
Sat 09:00:43 PM 40.6047 -88.5050 207° Southwest 454 522 33,300 1,900 Climbing Chicago Center
Sat 09:01:43 PM 40.4906 -88.5800 207° Southwest 454 522 35,400 1,471 Climbing Chicago Center
Sat 09:05:00 PM 40.1336 -88.8175 207° Southwest 435 501 39,600 1,074 Climbing Kansas City Center
Sat 09:06:00 PM 40.0247 -88.8914 207° Southwest 429 494 40,000 200 Climbing Kansas City Center
Sat 09:07:00 PM 39.9156 -88.9650 208° Southwest 410 472 40,000  Level Kansas City Center
Sat 09:08:00 PM 39.8125 -89.0350 207° Southwest 418 481 40,000  Level Kansas City Center
Sat 09:09:00 PM 39.7053 -89.1053 207° Southwest 424 488 40,000  Level Kansas City Center
Sat 09:10:00 PM 39.5958 -89.1783 208° Southwest 434 499 40,000  Level Kansas City Center
Sat 09:11:00 PM 39.4867 -89.2536 206° Southwest 439 505 40,000  Level Kansas City Center
Sat 09:12:00 PM 39.3792 -89.3206 207° Southwest 439 505 40,000  Level Kansas City Center
Sat 09:13:00 PM 39.2797 -89.3867 207° Southwest 444 511 40,000  Level Kansas City Center
Sat 09:14:00 PM 39.1581 -89.4650 206° Southwest 444 511 40,000  Level Kansas City Center
Sat 09:15:00 PM 39.0583 -89.5281 207° Southwest 449 517 40,000  Level Kansas City Center
Sat 09:16:00 PM 38.9367 -89.6083 207° Southwest 449 517 40,000  Level Kansas City Center
Sat 09:17:00 PM 38.8228 -89.6825 206° Southwest 449 517 40,000  Level Kansas City Center
Sat 09:18:00 PM 38.7150 -89.7508 207° Southwest 444 511 40,000  Level Kansas City Center
Sat 09:19:00 PM 38.5992 -89.8247 207° Southwest 456 525 40,000  Level Kansas City Center
Sat 09:20:00 PM 38.4994 -89.8894 206° Southwest 456 525 40,000  Level Kansas City Center
Sat 09:21:00 PM 38.3833 -89.9606 206° Southwest 464 534 40,000  Level Kansas City Center
Sat 09:22:00 PM 38.2633 -90.0367 207° Southwest 456 525 40,000  Level Kansas City Center
Sat 09:23:00 PM 38.1656 -90.1006 206° Southwest 446 513 40,000  Level Kansas City Center
Sat 09:24:00 PM 38.0431 -90.1764 207° Southwest 441 507 40,000  Level Kansas City Center
Sat 09:25:00 PM 37.9431 -90.2400 206° Southwest 441 507 40,000  Level Kansas City Center
Sat 09:26:00 PM 37.8228 -90.3153 207° Southwest 441 507 40,000  Level Kansas City Center
Sat 09:27:00 PM 37.7147 -90.3842 205° Southwest 441 507 40,000  Level Kansas City Center
Sat 09:28:00 PM 37.6125 -90.4450 206° Southwest 441 507 40,000  Level Kansas City Center
Sat 09:30:05 PM 37.3797 -90.5867 207° Southwest 440 506 40,000  Level Memphis Center
Sat 09:31:05 PM 37.2692 -90.6567 206° Southwest 450 518 40,000  Level Memphis Center
Sat 09:32:05 PM 37.1586 -90.7239 201° Southwest 443 510 40,000  Level Memphis Center
Sat 09:33:05 PM 37.0436 -90.7806 198° South 443 510 40,000  Level Memphis Center
Sat 09:34:05 PM 36.9289 -90.8267 198° South 443 510 40,000  Level Memphis Center
Sat 09:35:05 PM 36.8100 -90.8753 196° South 443 510 40,000  Level Memphis Center
Sat 09:36:05 PM 36.6931 -90.9183 199° South 443 510 40,000  Level Memphis Center
Sat 09:37:05 PM 36.5742 -90.9694 196° South 443 510 40,000  Level Memphis Center
Sat 09:38:05 PM 36.4572 -91.0122 199° South 448 516 40,000  Level Memphis Center
Sat 09:39:05 PM 36.3358 -91.0628 197° South 448 516 40,000  Level Memphis Center
Sat 09:40:05 PM 36.2147 -91.1081 198° South 448 516 40,000  Level Memphis Center
Sat 09:41:05 PM 36.0936 -91.1558 196° South 448 516 40,000  Level Memphis Center
Sat 09:42:05 PM 35.9703 -91.2008 197° South 461 531 40,000  Level Memphis Center
Sat 09:43:05 PM 35.8511 -91.2458 198° South 461 531 40,000  Level Memphis Center
Sat 09:44:05 PM 35.7297 -91.2931 198° South 461 531 40,000  Level Memphis Center
Sat 09:45:05 PM 35.6064 -91.3428 199° South 440 506 40,000  Level Memphis Center
Sat 09:46:05 PM 35.4869 -91.3922 195° South 446 513 40,000  Level Memphis Center
Sat 09:47:05 PM 35.3658 -91.4317 197° South 451 519 40,000  Level Memphis Center
Sat 09:48:05 PM 35.2422 -91.4783 198° South 451 519 40,000  Level Memphis Center
Sat 09:49:05 PM 35.1272 -91.5250 197° South 451 519 40,000  Level Memphis Center
Sat 09:50:05 PM 35.0100 -91.5689 197° South 446 513 40,000  Level Memphis Center
Sat 09:51:05 PM 34.8906 -91.6128 199° South 441 507 40,000  Level Memphis Center
Sat 09:52:05 PM 34.7775 -91.6592 198° South 441 507 40,000  Level Memphis Center
Sat 09:53:06 PM 34.6581 -91.7053 195° South 441 507 40,000  Level Memphis Center
Sat 09:54:05 PM 34.5533 -91.7389 197° South 441 507 40,000  Level Memphis Center
Sat 09:55:05 PM 34.4339 -91.7825 198° South 448 516 40,000  Level Memphis Center
Sat 09:56:05 PM 34.3122 -91.8306 198° South 448 516 40,000  Level Memphis Center
Sat 09:57:05 PM 34.1928 -91.8764 197° South 448 516 40,000  Level Memphis Center
Sat 09:59:34 PM 33.8931 -91.9839 198° South 442 509 40,000  Level Fort Worth Center
Sat 10:00:34 PM 33.7803 -92.0286 196° South 442 509 40,000  Level Fort Worth Center
Sat 10:01:34 PM 33.6589 -92.0708 197° South 442 509 40,000  Level Fort Worth Center
Sat 10:02:34 PM 33.5481 -92.1125 204° Southwest 435 501 40,000  Level Fort Worth Center
Sat 10:03:34 PM 33.4400 -92.1714 216° Southwest 429 494 40,000  Level Fort Worth Center
Sat 10:04:34 PM 33.3453 -92.2539 214° Southwest 414 476 40,000  Level Fort Worth Center
Sat 10:05:34 PM 33.2464 -92.3342 215° Southwest 424 488 40,000  Level Fort Worth Center
Sat 10:06:34 PM 33.1533 -92.4114 214° Southwest 430 495 40,000  Level Fort Worth Center
Sat 10:07:34 PM 33.0564 -92.4889 214° Southwest 423 487 40,000  Level Fort Worth Center
Sat 10:08:34 PM 32.9611 -92.5658 214° Southwest 423 487 40,000  Level Fort Worth Center
Sat 10:09:34 PM 32.8661 -92.6428 214° Southwest 423 487 40,000  Level Fort Worth Center
Sat 10:10:34 PM 32.7750 -92.7167 214° Southwest 416 479 40,000  Level Fort Worth Center
Sat 10:11:34 PM 32.6797 -92.7933 214° Southwest 416 479 40,000  Level Fort Worth Center
Sat 10:12:34 PM 32.5844 -92.8697 215° Southwest 416 479 40,000  Level Fort Worth Center
Sat 10:13:34 PM 32.4911 -92.9458 217° Southwest 410 472 40,000  Level Fort Worth Center
Sat 10:14:34 PM 32.4000 -93.0264 214° Southwest 410 472 40,000  Level Fort Worth Center
Sat 10:15:34 PM 32.3247 -93.0867 211° Southwest 410 472 40,000  Level Fort Worth Center
Sat 10:16:34 PM 32.2108 -93.1683 217° Southwest 405 466 40,000  Level Fort Worth Center
Sat 10:17:41 PM 32.1144 -93.2533 214° Southwest 422 486 40,000  Level Houston Center
Sat 10:18:42 PM 32.0197 -93.3278 214° Southwest 429 494 40,000  Level Houston Center
Sat 10:19:41 PM 31.9269 -93.4019 214° Southwest 429 494 40,000  Level Houston Center
Sat 10:20:41 PM 31.8322 -93.4783 214° Southwest 424 488 40,000  Level Houston Center
Sat 10:21:41 PM 31.7353 -93.5547 212° Southwest 424 488 40,000  Level Houston Center
Sat 10:22:41 PM 31.6425 -93.6236 214° Southwest 419 482 40,000  Level Houston Center
Sat 10:23:41 PM 31.5453 -93.7019 213° Southwest 419 482 40,000  Level Houston Center
Sat 10:24:41 PM 31.4461 -93.7778 213° Southwest 424 488 40,000  Level Houston Center
Sat 10:25:41 PM 31.3469 -93.8533 214° Southwest 429 494 40,000 -50 Level Houston Center
Sat 10:26:42 PM 31.2497 -93.9314 217° Southwest 429 494 39,900 -744 Descending Houston Center
Sat 10:27:42 PM 31.1586 -94.0119 220° Southwest 429 494 38,500 -1,109 Descending Houston Center
Sat 10:28:41 PM 31.0694 -94.0994 220° Southwest 429 494 37,700 -1,361 Descending Houston Center
Sat 10:29:41 PM 30.9803 -94.1869 218° Southwest 423 487 35,800 -2,650 Descending Houston Center
Sat 10:30:41 PM 30.8867 -94.2717 219° Southwest 423 487 32,400 -3,450 Descending Houston Center
Sat 10:31:41 PM 30.7933 -94.3586 221° Southwest 428 493 28,900 -3,050 Descending Houston Center
Sat 10:32:41 PM 30.7017 -94.4528 217° Southwest 428 493 26,300 -2,800 Descending Houston Center
Sat 10:33:41 PM 30.6103 -94.5322 220° Southwest 433 498 23,300 -2,850 Descending Houston Center
Sat 10:34:41 PM 30.5206 -94.6189 220° Southwest 428 493 20,600 -2,331 Descending Houston Center
Sat 10:35:42 PM 30.4311 -94.7053 219° Southwest 428 493 18,600 -2,450 Descending Houston Center
Sat 10:36:41 PM 30.3436 -94.7869 220° Southwest 423 487 15,700 -2,975 Descending Houston Center
Sat 10:37:41 PM 30.2583 -94.8683 218° Southwest 413 475 12,700 -3,200 Descending Houston Center
Sat 10:38:11 PM 30.2092 -94.9125 219° Southwest 390 449 10,900 -2,600 Descending Houston Center
Sat 10:38:41 PM 30.1750 -94.9450 218° Southwest 400 460 10,100 -885 Descending Houston Center
Sat 10:39:12 PM 30.1281 -94.9869 217° Southwest 326 375 10,000 -261 Descending Houston Center
Sat 10:40:13 PM 30.0619 -95.0447 220° Southwest 278 320 9,700 -931 Descending Houston Center
Sat 10:41:08 PM 30.0064 -95.0981 223° Southwest 278 320 8,200 -1,432 Descending Houston Center
Sat 10:41:41 PM 29.9828 -95.1236 222° Southwest 296 341 7,600 -1,364 Descending Houston Center
Sat 10:42:14 PM 29.9442 -95.1631 241° Southwest 273 314 6,700 -1,021 Descending Houston Center
Sat 10:43:15 PM 29.9067 -95.2408 243° Southwest 272 313 6,000 -787 Descending Houston Center
Sat 10:44:16 PM 29.8733 -95.3164 244° Southwest 265 305 5,100 -590 Descending Houston Center
Sat 10:45:17 PM 29.8444 -95.3847 192° South 217 250 4,800 -750 Descending Houston Center
Sat 10:46:24 PM 29.7939 -95.3972 154° Southeast 210 242 3,500 -1,397 Descending Houston Center
Sat 10:47:13 PM 29.7486 -95.3717 159° South 221 254 2,100 -1,043 Descending Houston Center
Sat 10:48:19 PM 29.7011 -95.3508 131° Southeast 142 163 1,500 -567 Descending Houston Center
Sat 10:49:20 PM 29.6769 -95.3189 332° Northwest 119 137 900 -590 Descending Houston Center
Sat 10:56:32 PM 30.3896 -95.7536 332° Northwest  Level FlightAware Approximate

Login

Don't have an account? Register now (free) for customized features, flight alerts, and more!